sensor_id;sensor_type;location;lat;lon;timestamp;P1;durP1;ratioP1;P2;durP2;ratioP2
22525;SDS011;11429;50.842;4.386;2023-05-07T00:00:01;9.95;;;4.55;;
22525;SDS011;11429;50.842;4.386;2023-05-07T00:02:28;8.15;;;4.30;;
22525;SDS011;11429;50.842;4.386;2023-05-07T00:04:54;8.35;;;4.68;;
22525;SDS011;11429;50.842;4.386;2023-05-07T00:07:20;11.68;;;4.82;;
22525;SDS011;11429;50.842;4.386;2023-05-07T00:09:46;8.68;;;4.15;;
22525;SDS011;11429;50.842;4.386;2023-05-07T00:12:11;10.32;;;4.20;;
22525;SDS011;11429;50.842;4.386;2023-05-07T00:14:37;9.35;;;4.60;;
22525;SDS011;11429;50.842;4.386;2023-05-07T00:17:03;8.75;;;4.35;;
22525;SDS011;11429;50.842;4.386;2023-05-07T00:19:28;11.38;;;4.78;;
22525;SDS011;11429;50.842;4.386;2023-05-07T00:21:54;10.50;;;4.68;;
22525;SDS011;11429;50.842;4.386;2023-05-07T00:24:20;11.10;;;4.55;;
22525;SDS011;11429;50.842;4.386;2023-05-07T00:26:46;12.65;;;4.50;;
22525;SDS011;11429;50.842;4.386;2023-05-07T00:29:12;8.60;;;4.10;;
22525;SDS011;11429;50.842;4.386;2023-05-07T00:31:38;12.52;;;4.70;;
22525;SDS011;11429;50.842;4.386;2023-05-07T00:34:03;11.68;;;4.45;;
22525;SDS011;11429;50.842;4.386;2023-05-07T00:36:29;10.55;;;4.20;;
22525;SDS011;11429;50.842;4.386;2023-05-07T00:38:56;9.82;;;4.18;;
22525;SDS011;11429;50.842;4.386;2023-05-07T00:41:24;11.45;;;4.15;;
22525;SDS011;11429;50.842;4.386;2023-05-07T00:43:49;8.13;;;4.28;;
22525;SDS011;11429;50.842;4.386;2023-05-07T00:46:16;10.43;;;4.60;;
22525;SDS011;11429;50.842;4.386;2023-05-07T00:48:44;8.20;;;4.53;;
22525;SDS011;11429;50.842;4.386;2023-05-07T00:51:10;7.90;;;3.72;;
22525;SDS011;11429;50.842;4.386;2023-05-07T00:53:36;8.13;;;3.97;;
22525;SDS011;11429;50.842;4.386;2023-05-07T00:56:03;7.28;;;3.30;;
22525;SDS011;11429;50.842;4.386;2023-05-07T00:58:29;7.68;;;3.50;;
22525;SDS011;11429;50.842;4.386;2023-05-07T01:00:55;10.55;;;4.18;;
22525;SDS011;11429;50.842;4.386;2023-05-07T01:03:21;9.02;;;3.67;;
22525;SDS011;11429;50.842;4.386;2023-05-07T01:05:47;9.80;;;4.47;;
22525;SDS011;11429;50.842;4.386;2023-05-07T01:08:13;8.55;;;4.05;;
22525;SDS011;11429;50.842;4.386;2023-05-07T01:10:40;8.40;;;4.00;;
22525;SDS011;11429;50.842;4.386;2023-05-07T01:13:08;8.85;;;4.05;;
22525;SDS011;11429;50.842;4.386;2023-05-07T01:15:35;10.20;;;4.22;;
22525;SDS011;11429;50.842;4.386;2023-05-07T01:18:01;8.65;;;3.85;;
22525;SDS011;11429;50.842;4.386;2023-05-07T01:20:27;8.00;;;3.70;;
22525;SDS011;11429;50.842;4.386;2023-05-07T01:22:53;9.35;;;3.95;;
22525;SDS011;11429;50.842;4.386;2023-05-07T01:25:20;8.68;;;4.00;;
22525;SDS011;11429;50.842;4.386;2023-05-07T01:27:46;11.23;;;4.45;;
22525;SDS011;11429;50.842;4.386;2023-05-07T01:30:12;10.88;;;4.50;;
22525;SDS011;11429;50.842;4.386;2023-05-07T01:32:40;11.15;;;4.50;;
22525;SDS011;11429;50.842;4.386;2023-05-07T01:35:11;7.18;;;3.85;;
22525;SDS011;11429;50.842;4.386;2023-05-07T01:37:39;11.18;;;4.15;;
22525;SDS011;11429;50.842;4.386;2023-05-07T01:40:05;10.02;;;4.32;;
22525;SDS011;11429;50.842;4.386;2023-05-07T01:42:32;10.68;;;4.45;;
22525;SDS011;11429;50.842;4.386;2023-05-07T01:44:58;10.55;;;4.50;;
22525;SDS011;11429;50.842;4.386;2023-05-07T01:47:24;12.05;;;4.30;;
22525;SDS011;11429;50.842;4.386;2023-05-07T01:49:50;9.68;;;4.28;;
22525;SDS011;11429;50.842;4.386;2023-05-07T01:52:16;9.90;;;4.70;;
22525;SDS011;11429;50.842;4.386;2023-05-07T01:54:42;14.95;;;4.40;;
22525;SDS011;11429;50.842;4.386;2023-05-07T01:57:08;7.78;;;3.90;;
22525;SDS011;11429;50.842;4.386;2023-05-07T01:59:33;9.13;;;4.18;;
22525;SDS011;11429;50.842;4.386;2023-05-07T02:01:59;13.43;;;4.82;;
22525;SDS011;11429;50.842;4.386;2023-05-07T02:04:25;11.80;;;4.47;;
22525;SDS011;11429;50.842;4.386;2023-05-07T02:06:51;12.65;;;4.28;;
22525;SDS011;11429;50.842;4.386;2023-05-07T02:09:17;9.57;;;4.20;;
22525;SDS011;11429;50.842;4.386;2023-05-07T02:11:43;8.70;;;4.28;;
22525;SDS011;11429;50.842;4.386;2023-05-07T02:14:09;9.02;;;3.92;;
22525;SDS011;11429;50.842;4.386;2023-05-07T02:16:35;8.93;;;3.70;;
22525;SDS011;11429;50.842;4.386;2023-05-07T02:19:01;8.05;;;4.22;;
22525;SDS011;11429;50.842;4.386;2023-05-07T02:21:27;11.90;;;4.78;;
22525;SDS011;11429;50.842;4.386;2023-05-07T02:23:53;12.60;;;5.68;;
22525;SDS011;11429;50.842;4.386;2023-05-07T02:26:19;8.13;;;3.72;;
22525;SDS011;11429;50.842;4.386;2023-05-07T02:28:44;14.18;;;4.40;;
22525;SDS011;11429;50.842;4.386;2023-05-07T02:31:10;11.02;;;4.55;;
22525;SDS011;11429;50.842;4.386;2023-05-07T02:33:36;10.93;;;4.65;;
22525;SDS011;11429;50.842;4.386;2023-05-07T02:36:05;9.85;;;4.35;;
22525;SDS011;11429;50.842;4.386;2023-05-07T02:38:32;9.45;;;4.07;;
22525;SDS011;11429;50.842;4.386;2023-05-07T02:40:58;14.57;;;4.15;;
22525;SDS011;11429;50.842;4.386;2023-05-07T02:43:24;10.50;;;3.72;;
22525;SDS011;11429;50.842;4.386;2023-05-07T02:45:59;10.55;;;3.97;;
22525;SDS011;11429;50.842;4.386;2023-05-07T02:48:29;10.75;;;4.18;;
22525;SDS011;11429;50.842;4.386;2023-05-07T02:50:55;12.60;;;4.18;;
22525;SDS011;11429;50.842;4.386;2023-05-07T02:53:20;7.18;;;3.58;;
22525;SDS011;11429;50.842;4.386;2023-05-07T02:55:46;8.80;;;3.53;;
22525;SDS011;11429;50.842;4.386;2023-05-07T02:58:12;10.30;;;3.33;;
22525;SDS011;11429;50.842;4.386;2023-05-07T03:00:38;11.10;;;3.50;;
22525;SDS011;11429;50.842;4.386;2023-05-07T03:03:03;9.45;;;3.70;;
22525;SDS011;11429;50.842;4.386;2023-05-07T03:05:29;10.80;;;3.95;;
22525;SDS011;11429;50.842;4.386;2023-05-07T03:07:55;11.43;;;3.78;;
22525;SDS011;11429;50.842;4.386;2023-05-07T03:10:20;7.75;;;3.65;;
22525;SDS011;11429;50.842;4.386;2023-05-07T03:12:46;9.18;;;3.72;;
22525;SDS011;11429;50.842;4.386;2023-05-07T03:15:12;10.43;;;3.60;;
22525;SDS011;11429;50.842;4.386;2023-05-07T03:17:38;9.45;;;3.42;;
22525;SDS011;11429;50.842;4.386;2023-05-07T03:20:04;9.98;;;3.90;;
22525;SDS011;11429;50.842;4.386;2023-05-07T03:22:30;9.70;;;3.90;;
22525;SDS011;11429;50.842;4.386;2023-05-07T03:24:55;9.77;;;4.00;;
22525;SDS011;11429;50.842;4.386;2023-05-07T03:27:21;9.68;;;4.10;;
22525;SDS011;11429;50.842;4.386;2023-05-07T03:29:47;10.45;;;3.75;;
22525;SDS011;11429;50.842;4.386;2023-05-07T03:32:13;11.00;;;4.28;;
22525;SDS011;11429;50.842;4.386;2023-05-07T03:34:39;9.30;;;3.60;;
22525;SDS011;11429;50.842;4.386;2023-05-07T03:37:05;9.30;;;4.05;;
22525;SDS011;11429;50.842;4.386;2023-05-07T03:39:31;12.77;;;3.88;;
22525;SDS011;11429;50.842;4.386;2023-05-07T03:41:57;9.18;;;3.78;;
22525;SDS011;11429;50.842;4.386;2023-05-07T03:44:23;8.20;;;4.00;;
22525;SDS011;11429;50.842;4.386;2023-05-07T03:46:49;10.00;;;3.80;;
22525;SDS011;11429;50.842;4.386;2023-05-07T03:49:14;9.38;;;3.83;;
22525;SDS011;11429;50.842;4.386;2023-05-07T03:51:40;10.90;;;4.22;;
22525;SDS011;11429;50.842;4.386;2023-05-07T03:54:06;11.05;;;4.13;;
22525;SDS011;11429;50.842;4.386;2023-05-07T03:56:32;8.65;;;3.53;;
22525;SDS011;11429;50.842;4.386;2023-05-07T03:58:57;12.43;;;3.90;;
22525;SDS011;11429;50.842;4.386;2023-05-07T04:01:25;10.25;;;3.88;;
22525;SDS011;11429;50.842;4.386;2023-05-07T04:03:51;11.63;;;4.50;;
22525;SDS011;11429;50.842;4.386;2023-05-07T04:06:17;12.75;;;3.67;;
22525;SDS011;11429;50.842;4.386;2023-05-07T04:08:42;9.05;;;3.50;;
22525;SDS011;11429;50.842;4.386;2023-05-07T04:11:08;11.50;;;4.32;;
22525;SDS011;11429;50.842;4.386;2023-05-07T04:13:34;10.98;;;4.28;;
22525;SDS011;11429;50.842;4.386;2023-05-07T04:16:01;9.25;;;3.88;;
22525;SDS011;11429;50.842;4.386;2023-05-07T04:18:28;10.55;;;3.78;;
22525;SDS011;11429;50.842;4.386;2023-05-07T04:20:53;8.68;;;3.67;;
22525;SDS011;11429;50.842;4.386;2023-05-07T04:23:19;9.90;;;4.00;;
22525;SDS011;11429;50.842;4.386;2023-05-07T04:25:45;9.07;;;3.80;;
22525;SDS011;11429;50.842;4.386;2023-05-07T04:28:11;8.68;;;3.92;;
22525;SDS011;11429;50.842;4.386;2023-05-07T04:30:37;11.05;;;5.80;;
22525;SDS011;11429;50.842;4.386;2023-05-07T04:33:03;8.38;;;4.00;;
22525;SDS011;11429;50.842;4.386;2023-05-07T04:35:29;11.07;;;4.05;;
22525;SDS011;11429;50.842;4.386;2023-05-07T04:37:55;10.45;;;3.63;;
22525;SDS011;11429;50.842;4.386;2023-05-07T04:40:20;10.40;;;4.20;;
22525;SDS011;11429;50.842;4.386;2023-05-07T04:42:46;7.47;;;3.78;;
22525;SDS011;11429;50.842;4.386;2023-05-07T04:45:11;14.45;;;4.22;;
22525;SDS011;11429;50.842;4.386;2023-05-07T04:47:37;8.05;;;3.72;;
22525;SDS011;11429;50.842;4.386;2023-05-07T04:50:04;11.43;;;4.43;;
22525;SDS011;11429;50.842;4.386;2023-05-07T04:52:31;10.30;;;3.92;;
22525;SDS011;11429;50.842;4.386;2023-05-07T04:54:58;9.25;;;3.75;;
22525;SDS011;11429;50.842;4.386;2023-05-07T04:57:24;7.10;;;3.10;;
22525;SDS011;11429;50.842;4.386;2023-05-07T04:59:51;9.27;;;3.72;;
22525;SDS011;11429;50.842;4.386;2023-05-07T05:02:17;8.10;;;3.85;;
22525;SDS011;11429;50.842;4.386;2023-05-07T05:04:42;7.38;;;3.63;;
22525;SDS011;11429;50.842;4.386;2023-05-07T05:07:08;7.38;;;3.58;;
22525;SDS011;11429;50.842;4.386;2023-05-07T05:09:34;10.68;;;3.50;;
22525;SDS011;11429;50.842;4.386;2023-05-07T05:11:59;8.15;;;3.70;;
22525;SDS011;11429;50.842;4.386;2023-05-07T05:14:25;10.52;;;3.75;;
22525;SDS011;11429;50.842;4.386;2023-05-07T05:16:50;7.50;;;3.70;;
22525;SDS011;11429;50.842;4.386;2023-05-07T05:19:16;13.73;;;4.07;;
22525;SDS011;11429;50.842;4.386;2023-05-07T05:21:42;11.20;;;3.85;;
22525;SDS011;11429;50.842;4.386;2023-05-07T05:24:07;7.78;;;3.70;;
22525;SDS011;11429;50.842;4.386;2023-05-07T05:26:33;6.10;;;3.60;;
22525;SDS011;11429;50.842;4.386;2023-05-07T05:28:59;8.20;;;3.50;;
22525;SDS011;11429;50.842;4.386;2023-05-07T05:31:25;10.68;;;3.40;;
22525;SDS011;11429;50.842;4.386;2023-05-07T05:33:50;8.05;;;3.28;;
22525;SDS011;11429;50.842;4.386;2023-05-07T05:36:16;10.60;;;3.92;;
22525;SDS011;11429;50.842;4.386;2023-05-07T05:38:42;10.02;;;4.20;;
22525;SDS011;11429;50.842;4.386;2023-05-07T05:41:08;6.97;;;3.45;;
22525;SDS011;11429;50.842;4.386;2023-05-07T05:43:34;10.10;;;3.90;;
22525;SDS011;11429;50.842;4.386;2023-05-07T05:46:00;11.15;;;4.00;;
22525;SDS011;11429;50.842;4.386;2023-05-07T05:48:26;9.18;;;3.50;;
22525;SDS011;11429;50.842;4.386;2023-05-07T05:50:51;10.32;;;3.78;;
22525;SDS011;11429;50.842;4.386;2023-05-07T05:53:17;9.77;;;3.97;;
22525;SDS011;11429;50.842;4.386;2023-05-07T05:55:43;8.77;;;3.65;;
22525;SDS011;11429;50.842;4.386;2023-05-07T05:58:09;8.55;;;3.40;;
22525;SDS011;11429;50.842;4.386;2023-05-07T06:00:34;19.00;;;3.75;;
22525;SDS011;11429;50.842;4.386;2023-05-07T06:03:00;11.48;;;3.70;;
22525;SDS011;11429;50.842;4.386;2023-05-07T06:05:26;9.50;;;3.20;;
22525;SDS011;11429;50.842;4.386;2023-05-07T06:07:52;8.27;;;3.55;;
22525;SDS011;11429;50.842;4.386;2023-05-07T06:10:17;8.38;;;3.95;;
22525;SDS011;11429;50.842;4.386;2023-05-07T06:12:43;9.85;;;4.25;;
22525;SDS011;11429;50.842;4.386;2023-05-07T06:15:09;10.07;;;4.28;;
22525;SDS011;11429;50.842;4.386;2023-05-07T06:17:35;11.63;;;5.30;;
22525;SDS011;11429;50.842;4.386;2023-05-07T06:20:01;9.77;;;4.50;;
22525;SDS011;11429;50.842;4.386;2023-05-07T06:22:26;8.10;;;4.18;;
22525;SDS011;11429;50.842;4.386;2023-05-07T06:24:52;8.25;;;4.00;;
22525;SDS011;11429;50.842;4.386;2023-05-07T06:27:18;12.68;;;4.82;;
22525;SDS011;11429;50.842;4.386;2023-05-07T06:29:43;11.13;;;5.03;;
22525;SDS011;11429;50.842;4.386;2023-05-07T06:32:10;11.38;;;4.38;;
22525;SDS011;11429;50.842;4.386;2023-05-07T06:34:36;9.48;;;3.85;;
22525;SDS011;11429;50.842;4.386;2023-05-07T06:37:02;9.45;;;4.25;;
22525;SDS011;11429;50.842;4.386;2023-05-07T06:39:28;7.18;;;4.15;;
22525;SDS011;11429;50.842;4.386;2023-05-07T06:41:54;8.27;;;3.85;;
22525;SDS011;11429;50.842;4.386;2023-05-07T06:44:20;10.15;;;4.18;;
22525;SDS011;11429;50.842;4.386;2023-05-07T06:46:45;14.73;;;4.57;;
22525;SDS011;11429;50.842;4.386;2023-05-07T06:49:14;9.93;;;4.82;;
22525;SDS011;11429;50.842;4.386;2023-05-07T06:51:40;8.77;;;3.72;;
22525;SDS011;11429;50.842;4.386;2023-05-07T06:54:06;13.13;;;4.30;;
22525;SDS011;11429;50.842;4.386;2023-05-07T06:56:32;7.63;;;3.35;;
22525;SDS011;11429;50.842;4.386;2023-05-07T06:58:59;8.90;;;4.13;;
22525;SDS011;11429;50.842;4.386;2023-05-07T07:01:26;8.65;;;3.53;;
22525;SDS011;11429;50.842;4.386;2023-05-07T07:03:51;9.35;;;3.60;;
22525;SDS011;11429;50.842;4.386;2023-05-07T07:06:17;9.73;;;4.10;;
22525;SDS011;11429;50.842;4.386;2023-05-07T07:08:43;10.15;;;3.80;;
22525;SDS011;11429;50.842;4.386;2023-05-07T07:11:09;8.63;;;3.70;;
22525;SDS011;11429;50.842;4.386;2023-05-07T07:13:35;7.07;;;3.95;;
22525;SDS011;11429;50.842;4.386;2023-05-07T07:16:01;8.05;;;3.88;;
22525;SDS011;11429;50.842;4.386;2023-05-07T07:18:27;6.35;;;3.35;;
22525;SDS011;11429;50.842;4.386;2023-05-07T07:20:53;8.18;;;3.58;;
22525;SDS011;11429;50.842;4.386;2023-05-07T07:23:19;11.43;;;4.15;;
22525;SDS011;11429;50.842;4.386;2023-05-07T07:25:45;7.25;;;3.40;;
22525;SDS011;11429;50.842;4.386;2023-05-07T07:28:11;9.07;;;4.00;;
22525;SDS011;11429;50.842;4.386;2023-05-07T07:30:37;7.90;;;4.35;;
22525;SDS011;11429;50.842;4.386;2023-05-07T07:33:03;15.30;;;4.43;;
22525;SDS011;11429;50.842;4.386;2023-05-07T07:35:29;9.45;;;4.80;;
22525;SDS011;11429;50.842;4.386;2023-05-07T07:37:55;10.23;;;3.90;;
22525;SDS011;11429;50.842;4.386;2023-05-07T07:40:21;9.15;;;4.15;;
22525;SDS011;11429;50.842;4.386;2023-05-07T07:42:47;10.90;;;6.10;;
22525;SDS011;11429;50.842;4.386;2023-05-07T07:45:12;9.07;;;4.40;;
22525;SDS011;11429;50.842;4.386;2023-05-07T07:47:41;10.10;;;4.55;;
22525;SDS011;11429;50.842;4.386;2023-05-07T07:50:07;7.70;;;4.43;;
22525;SDS011;11429;50.842;4.386;2023-05-07T07:52:33;8.65;;;4.70;;
22525;SDS011;11429;50.842;4.386;2023-05-07T07:54:59;10.23;;;5.15;;
22525;SDS011;11429;50.842;4.386;2023-05-07T07:57:25;10.10;;;5.10;;
22525;SDS011;11429;50.842;4.386;2023-05-07T07:59:50;10.25;;;5.53;;
22525;SDS011;11429;50.842;4.386;2023-05-07T08:02:16;11.02;;;5.35;;
22525;SDS011;11429;50.842;4.386;2023-05-07T08:04:42;9.93;;;4.97;;
22525;SDS011;11429;50.842;4.386;2023-05-07T08:07:11;10.15;;;4.43;;
22525;SDS011;11429;50.842;4.386;2023-05-07T08:09:38;8.45;;;4.32;;
22525;SDS011;11429;50.842;4.386;2023-05-07T08:12:07;14.23;;;5.22;;
22525;SDS011;11429;50.842;4.386;2023-05-07T08:14:33;9.38;;;4.47;;
22525;SDS011;11429;50.842;4.386;2023-05-07T08:17:01;8.30;;;4.43;;
22525;SDS011;11429;50.842;4.386;2023-05-07T08:19:27;8.52;;;4.93;;
22525;SDS011;11429;50.842;4.386;2023-05-07T08:21:52;10.93;;;4.75;;
22525;SDS011;11429;50.842;4.386;2023-05-07T08:24:18;8.43;;;4.88;;
22525;SDS011;11429;50.842;4.386;2023-05-07T08:26:44;8.13;;;4.28;;
22525;SDS011;11429;50.842;4.386;2023-05-07T08:29:10;8.35;;;4.50;;
22525;SDS011;11429;50.842;4.386;2023-05-07T08:31:35;8.40;;;4.90;;
22525;SDS011;11429;50.842;4.386;2023-05-07T08:34:01;9.00;;;5.00;;
22525;SDS011;11429;50.842;4.386;2023-05-07T08:36:28;10.30;;;5.03;;
22525;SDS011;11429;50.842;4.386;2023-05-07T08:38:53;11.30;;;5.70;;
22525;SDS011;11429;50.842;4.386;2023-05-07T08:41:19;9.52;;;4.82;;
22525;SDS011;11429;50.842;4.386;2023-05-07T08:43:49;10.93;;;5.43;;
22525;SDS011;11429;50.842;4.386;2023-05-07T08:46:18;13.98;;;5.70;;
22525;SDS011;11429;50.842;4.386;2023-05-07T08:48:49;12.07;;;5.88;;
22525;SDS011;11429;50.842;4.386;2023-05-07T08:51:16;9.88;;;5.63;;
22525;SDS011;11429;50.842;4.386;2023-05-07T08:53:43;9.65;;;5.75;;
22525;SDS011;11429;50.842;4.386;2023-05-07T08:56:10;9.82;;;5.95;;
22525;SDS011;11429;50.842;4.386;2023-05-07T08:58:36;10.10;;;5.97;;
22525;SDS011;11429;50.842;4.386;2023-05-07T09:01:03;9.07;;;5.28;;
22525;SDS011;11429;50.842;4.386;2023-05-07T09:03:33;10.90;;;7.00;;
22525;SDS011;11429;50.842;4.386;2023-05-07T09:05:59;8.65;;;4.95;;
22525;SDS011;11429;50.842;4.386;2023-05-07T09:08:28;11.02;;;4.88;;
22525;SDS011;11429;50.842;4.386;2023-05-07T09:10:54;8.35;;;5.70;;
22525;SDS011;11429;50.842;4.386;2023-05-07T09:13:20;10.75;;;5.53;;
22525;SDS011;11429;50.842;4.386;2023-05-07T09:15:46;10.38;;;5.72;;
22525;SDS011;11429;50.842;4.386;2023-05-07T09:18:12;11.77;;;6.70;;
22525;SDS011;11429;50.842;4.386;2023-05-07T09:20:38;10.18;;;6.15;;
22525;SDS011;11429;50.842;4.386;2023-05-07T09:23:05;9.98;;;6.35;;
22525;SDS011;11429;50.842;4.386;2023-05-07T09:25:32;12.60;;;5.78;;
22525;SDS011;11429;50.842;4.386;2023-05-07T09:28:02;8.25;;;5.38;;
22525;SDS011;11429;50.842;4.386;2023-05-07T09:30:30;10.15;;;5.30;;
22525;SDS011;11429;50.842;4.386;2023-05-07T09:32:57;9.77;;;4.95;;
22525;SDS011;11429;50.842;4.386;2023-05-07T09:35:25;10.82;;;5.10;;
22525;SDS011;11429;50.842;4.386;2023-05-07T09:37:57;9.25;;;5.05;;
22525;SDS011;11429;50.842;4.386;2023-05-07T09:40:25;9.55;;;5.43;;
22525;SDS011;11429;50.842;4.386;2023-05-07T09:42:52;11.57;;;5.85;;
22525;SDS011;11429;50.842;4.386;2023-05-07T09:45:28;7.78;;;5.13;;
22525;SDS011;11429;50.842;4.386;2023-05-07T09:47:54;11.75;;;5.60;;
22525;SDS011;11429;50.842;4.386;2023-05-07T09:50:22;8.63;;;4.93;;
22525;SDS011;11429;50.842;4.386;2023-05-07T09:52:53;9.13;;;4.50;;
22525;SDS011;11429;50.842;4.386;2023-05-07T09:55:20;7.72;;;4.57;;
22525;SDS011;11429;50.842;4.386;2023-05-07T09:57:48;10.07;;;4.97;;
22525;SDS011;11429;50.842;4.386;2023-05-07T10:00:18;8.35;;;4.28;;
22525;SDS011;11429;50.842;4.386;2023-05-07T10:02:46;7.05;;;4.82;;
22525;SDS011;11429;50.842;4.386;2023-05-07T10:05:16;8.00;;;4.32;;
22525;SDS011;11429;50.842;4.386;2023-05-07T10:07:42;9.05;;;4.22;;
22525;SDS011;11429;50.842;4.386;2023-05-07T10:10:09;8.02;;;3.40;;
22525;SDS011;11429;50.842;4.386;2023-05-07T10:12:36;6.70;;;3.17;;
22525;SDS011;11429;50.842;4.386;2023-05-07T10:15:07;5.32;;;2.70;;
22525;SDS011;11429;50.842;4.386;2023-05-07T10:17:35;5.35;;;2.78;;
22525;SDS011;11429;50.842;4.386;2023-05-07T10:20:03;5.25;;;2.28;;
22525;SDS011;11429;50.842;4.386;2023-05-07T10:22:33;5.75;;;3.10;;
22525;SDS011;11429;50.842;4.386;2023-05-07T10:25:06;4.50;;;3.00;;
22525;SDS011;11429;50.842;4.386;2023-05-07T10:27:50;5.57;;;2.88;;
22525;SDS011;11429;50.842;4.386;2023-05-07T10:33:03;6.75;;;3.10;;
22525;SDS011;11429;50.842;4.386;2023-05-07T10:35:41;6.57;;;3.28;;
22525;SDS011;11429;50.842;4.386;2023-05-07T10:38:08;3.90;;;2.97;;
22525;SDS011;11429;50.842;4.386;2023-05-07T10:40:34;6.40;;;3.28;;
22525;SDS011;11429;50.842;4.386;2023-05-07T10:43:01;5.07;;;2.55;;
22525;SDS011;11429;50.842;4.386;2023-05-07T10:45:30;4.85;;;2.65;;
22525;SDS011;11429;50.842;4.386;2023-05-07T10:50:32;4.82;;;3.05;;
22525;SDS011;11429;50.842;4.386;2023-05-07T10:55:41;6.28;;;2.95;;
22525;SDS011;11429;50.842;4.386;2023-05-07T10:58:23;5.88;;;2.50;;
22525;SDS011;11429;50.842;4.386;2023-05-07T11:00:54;4.72;;;2.70;;
22525;SDS011;11429;50.842;4.386;2023-05-07T11:03:25;5.13;;;2.95;;
22525;SDS011;11429;50.842;4.386;2023-05-07T11:06:11;6.93;;;3.35;;
22525;SDS011;11429;50.842;4.386;2023-05-07T11:11:19;4.82;;;2.60;;
22525;SDS011;11429;50.842;4.386;2023-05-07T11:14:05;6.57;;;3.33;;
22525;SDS011;11429;50.842;4.386;2023-05-07T11:16:31;6.22;;;3.20;;
22525;SDS011;11429;50.842;4.386;2023-05-07T11:18:58;5.78;;;3.40;;
22525;SDS011;11429;50.842;4.386;2023-05-07T11:21:40;6.40;;;3.17;;
22525;SDS011;11429;50.842;4.386;2023-05-07T11:24:09;3.78;;;2.50;;
22525;SDS011;11429;50.842;4.386;2023-05-07T11:29:15;6.05;;;3.05;;
22525;SDS011;11429;50.842;4.386;2023-05-07T11:31:43;6.10;;;3.67;;
22525;SDS011;11429;50.842;4.386;2023-05-07T11:34:08;5.85;;;3.47;;
22525;SDS011;11429;50.842;4.386;2023-05-07T11:36:36;6.53;;;3.00;;
22525;SDS011;11429;50.842;4.386;2023-05-07T11:41:54;3.78;;;2.22;;
22525;SDS011;11429;50.842;4.386;2023-05-07T11:44:20;4.43;;;2.70;;
22525;SDS011;11429;50.842;4.386;2023-05-07T11:46:46;4.60;;;3.25;;
22525;SDS011;11429;50.842;4.386;2023-05-07T11:49:12;6.80;;;3.28;;
22525;SDS011;11429;50.842;4.386;2023-05-07T11:51:37;6.47;;;3.58;;
22525;SDS011;11429;50.842;4.386;2023-05-07T11:54:04;5.25;;;3.10;;
22525;SDS011;11429;50.842;4.386;2023-05-07T11:56:34;5.20;;;2.58;;
22525;SDS011;11429;50.842;4.386;2023-05-07T11:59:04;6.82;;;2.60;;
22525;SDS011;11429;50.842;4.386;2023-05-07T12:01:30;4.78;;;2.03;;
22525;SDS011;11429;50.842;4.386;2023-05-07T12:03:56;5.35;;;2.92;;
22525;SDS011;11429;50.842;4.386;2023-05-07T12:06:21;7.18;;;2.03;;
22525;SDS011;11429;50.842;4.386;2023-05-07T12:08:47;4.10;;;2.35;;
22525;SDS011;11429;50.842;4.386;2023-05-07T12:11:16;4.05;;;1.95;;
22525;SDS011;11429;50.842;4.386;2023-05-07T12:13:48;3.38;;;2.42;;
22525;SDS011;11429;50.842;4.386;2023-05-07T12:16:13;3.75;;;2.05;;
22525;SDS011;11429;50.842;4.386;2023-05-07T12:18:39;4.95;;;2.42;;
22525;SDS011;11429;50.842;4.386;2023-05-07T12:21:05;3.90;;;2.00;;
22525;SDS011;11429;50.842;4.386;2023-05-07T12:23:32;3.60;;;1.92;;
22525;SDS011;11429;50.842;4.386;2023-05-07T12:25:59;3.25;;;1.92;;
22525;SDS011;11429;50.842;4.386;2023-05-07T12:28:25;6.65;;;5.07;;
22525;SDS011;11429;50.842;4.386;2023-05-07T12:30:51;3.00;;;2.33;;
22525;SDS011;11429;50.842;4.386;2023-05-07T12:33:17;3.88;;;2.30;;
22525;SDS011;11429;50.842;4.386;2023-05-07T12:35:48;4.18;;;2.38;;
22525;SDS011;11429;50.842;4.386;2023-05-07T12:38:14;4.97;;;2.67;;
22525;SDS011;11429;50.842;4.386;2023-05-07T12:40:45;5.10;;;2.92;;
22525;SDS011;11429;50.842;4.386;2023-05-07T12:43:29;5.10;;;2.83;;
22525;SDS011;11429;50.842;4.386;2023-05-07T12:45:56;5.90;;;3.35;;
22525;SDS011;11429;50.842;4.386;2023-05-07T12:48:24;7.97;;;3.67;;
22525;SDS011;11429;50.842;4.386;2023-05-07T12:50:52;5.10;;;3.28;;
22525;SDS011;11429;50.842;4.386;2023-05-07T12:53:23;6.45;;;4.35;;
22525;SDS011;11429;50.842;4.386;2023-05-07T12:55:51;6.68;;;5.25;;
22525;SDS011;11429;50.842;4.386;2023-05-07T12:58:26;8.35;;;5.90;;
22525;SDS011;11429;50.842;4.386;2023-05-07T13:00:53;7.03;;;5.18;;
22525;SDS011;11429;50.842;4.386;2023-05-07T13:03:22;11.88;;;6.35;;
22525;SDS011;11429;50.842;4.386;2023-05-07T13:05:49;7.47;;;6.68;;
22525;SDS011;11429;50.842;4.386;2023-05-07T13:08:28;7.35;;;6.35;;
22525;SDS011;11429;50.842;4.386;2023-05-07T13:10:56;6.50;;;5.88;;
22525;SDS011;11429;50.842;4.386;2023-05-07T13:13:23;7.80;;;6.78;;
22525;SDS011;11429;50.842;4.386;2023-05-07T13:15:48;10.18;;;7.38;;
22525;SDS011;11429;50.842;4.386;2023-05-07T13:18:14;8.65;;;7.07;;
22525;SDS011;11429;50.842;4.386;2023-05-07T13:20:40;9.38;;;6.45;;
22525;SDS011;11429;50.842;4.386;2023-05-07T13:23:06;8.88;;;7.00;;
22525;SDS011;11429;50.842;4.386;2023-05-07T13:25:31;10.07;;;7.93;;
22525;SDS011;11429;50.842;4.386;2023-05-07T13:27:57;10.48;;;8.95;;
22525;SDS011;11429;50.842;4.386;2023-05-07T13:30:23;11.55;;;9.40;;
22525;SDS011;11429;50.842;4.386;2023-05-07T13:32:48;10.23;;;8.60;;
22525;SDS011;11429;50.842;4.386;2023-05-07T13:35:15;10.77;;;8.93;;
22525;SDS011;11429;50.842;4.386;2023-05-07T13:37:41;10.23;;;9.27;;
22525;SDS011;11429;50.842;4.386;2023-05-07T13:40:07;10.48;;;9.48;;
22525;SDS011;11429;50.842;4.386;2023-05-07T13:42:33;11.20;;;9.98;;
22525;SDS011;11429;50.842;4.386;2023-05-07T13:44:59;11.35;;;9.75;;
22525;SDS011;11429;50.842;4.386;2023-05-07T13:47:25;10.27;;;9.15;;
22525;SDS011;11429;50.842;4.386;2023-05-07T13:49:51;10.90;;;9.02;;
22525;SDS011;11429;50.842;4.386;2023-05-07T13:52:17;9.85;;;8.40;;
22525;SDS011;11429;50.842;4.386;2023-05-07T13:54:45;12.20;;;9.15;;
22525;SDS011;11429;50.842;4.386;2023-05-07T13:57:10;11.10;;;10.05;;
22525;SDS011;11429;50.842;4.386;2023-05-07T13:59:36;10.93;;;9.82;;
22525;SDS011;11429;50.842;4.386;2023-05-07T14:02:02;13.10;;;11.18;;
22525;SDS011;11429;50.842;4.386;2023-05-07T14:04:27;12.13;;;10.23;;
22525;SDS011;11429;50.842;4.386;2023-05-07T14:06:53;12.13;;;11.02;;
22525;SDS011;11429;50.842;4.386;2023-05-07T14:09:19;11.27;;;10.07;;
22525;SDS011;11429;50.842;4.386;2023-05-07T14:11:44;12.35;;;11.05;;
22525;SDS011;11429;50.842;4.386;2023-05-07T14:14:12;12.25;;;10.90;;
22525;SDS011;11429;50.842;4.386;2023-05-07T14:16:38;12.98;;;11.68;;
22525;SDS011;11429;50.842;4.386;2023-05-07T14:19:04;11.13;;;10.02;;
22525;SDS011;11429;50.842;4.386;2023-05-07T14:21:29;12.70;;;11.48;;
22525;SDS011;11429;50.842;4.386;2023-05-07T14:23:55;13.65;;;12.25;;
22525;SDS011;11429;50.842;4.386;2023-05-07T14:26:21;14.00;;;12.55;;
22525;SDS011;11429;50.842;4.386;2023-05-07T14:28:48;13.63;;;12.32;;
22525;SDS011;11429;50.842;4.386;2023-05-07T14:31:14;13.93;;;12.63;;
22525;SDS011;11429;50.842;4.386;2023-05-07T14:33:40;14.38;;;12.77;;
22525;SDS011;11429;50.842;4.386;2023-05-07T14:36:05;14.65;;;13.18;;
22525;SDS011;11429;50.842;4.386;2023-05-07T14:38:31;13.85;;;12.45;;
22525;SDS011;11429;50.842;4.386;2023-05-07T14:40:58;13.55;;;12.25;;
22525;SDS011;11429;50.842;4.386;2023-05-07T14:43:23;12.18;;;11.02;;
22525;SDS011;11429;50.842;4.386;2023-05-07T14:45:49;10.73;;;9.73;;
22525;SDS011;11429;50.842;4.386;2023-05-07T14:48:15;12.50;;;10.02;;
22525;SDS011;11429;50.842;4.386;2023-05-07T14:50:41;12.55;;;10.57;;
22525;SDS011;11429;50.842;4.386;2023-05-07T14:53:07;13.63;;;11.00;;